Lindrith, New Mexico
Current Conditions -  °F | °C
As of 1:35 PM on Thursday 27 Nov 2014 (Local Time) from KLAM Reporting Station
Clear Clear  
Wind Chill: 54°   Ceiling: Unl
Heat Index: 54°   Visibility: 10mi
Dew Point: 22°   Wind: 6mph
Humidity: 29%   Direction: 140°SE
Pressure: 30.4"   Gusts: NA
Location:  36.3°N, 107.04°W
Report Text: KLAM 272035Z AUTO 14005KT 10SM CLR 12/M05 A3040 RMK AO2 T01231055
Loading
Personal Weather Stations






























Interactive Weather Map New forecast layout! Learn more

10-Day Weather Forecast

Advertisements
Track Severe Weather on mobile